Portada
METAR-TAF:

METAR-TAF

Aeroports :

Dalian, Xina

latitud: 38-54N, longitud: 121-38E, altitud: 97 m

Observació

L'informe es va fer fa 29 minuts, a les 23:30 UTC
Vent 8 kt del Sud-Est
Temperatura 12°C
Humitat 76%
Pressió 1025 hPa
Visibilitat 10 km o més
Núvols disperses a una alçada de 4000 ft

METAR: ZYTL 212330Z 14004MPS 9999 SCT040 12/08 Q1025 NOSIG

Hora: 07:59 (23:59 UTC)

Pronòstic

L'informe es va fer fa 4 hores i 46 minuts, a les 19:13 UTC
Pronòstic vàlid del 22 a les 00 UTC al 22 a les 24 UTC
Vent 8 kt del Sud/Sud-Est
Visibilitat: 5000 m
Cel ennuvolat a una alçada de 3300 ft
boirina

TAF: ZYTL 211913Z 2200/2224 16004MPS 5000 BR BKN033 TX13/2206Z TN04/2221Z

Observacions i pronòstics meteorològics de més de 4000 aeroports (METAR i TAF).

Les estacions disponibles són els punts grocs i vermells al mapa.

Posi el ratolí al punt desitjat per veure el nom de l'estació.

Feu clic per veure les observacions i els pronòstics meteorològics.

Per canviar el mapa: feu clic els botons verds amb una creu de color negre per apropar; al botó verd amb un guió per allunyar la imatge; o en les fletxes verdes per a mapes adjacents.


METAR-TAF: